Time;durP1;ratioP1;P1;durP2;ratioP2;P2;SDS_P1;SDS_P2;PMS_P1;PMS_P2;Temp;Humidity;BMP_temperature;BMP_pressure;BME280_temperature;BME280_humidity;BME280_pressure;Samples;Min_cycle;Max_cycle;Signal;HPM_P1;HPM_P2
2022/08/25 00:02:05;;;;;;;20.90;17.95;;;;;;;19.47;100.00;100936.83;1745731;80;20986;-78
2022/08/25 00:04:34;;;;;;;22.22;18.23;;;;;;;19.46;100.00;100937.80;1739600;81;21471;-78
2022/08/25 00:07:04;;;;;;;21.50;18.70;;;;;;;19.46;100.00;100935.62;1739167;81;21005;-78
2022/08/25 00:09:33;;;;;;;28.60;19.48;;;;;;;19.47;100.00;100946.62;1747031;81;21495;-78
2022/08/25 00:12:02;;;;;;;21.73;18.48;;;;;;;19.48;100.00;100942.99;1752795;81;21096;-78
2022/08/25 00:14:35;;;;;;;22.65;18.92;;;;;;;19.48;100.00;100937.67;1768548;81;21528;-78
2022/08/25 00:17:04;;;;;;;22.00;18.00;;;;;;;19.47;100.00;100934.66;1761729;81;21032;-78
2022/08/25 00:19:34;;;;;;;25.95;18.87;;;;;;;19.47;100.00;100930.67;1758798;81;21116;-78
2022/08/25 00:22:03;;;;;;;20.65;17.82;;;;;;;19.47;100.00;100930.67;1765146;81;21022;-78
2022/08/25 00:24:31;;;;;;;24.67;18.95;;;;;;;19.47;100.00;100932.84;1768541;81;21169;-78
2022/08/25 00:27:00;;;;;;;21.62;17.95;;;;;;;19.47;100.00;100929.34;1768714;81;21066;-78
2022/08/25 00:29:28;;;;;;;24.10;19.50;;;;;;;19.46;100.00;100925.83;1768440;81;21046;-78
2022/08/25 00:31:56;;;;;;;22.13;18.40;;;;;;;19.46;100.00;100927.64;1768763;81;21026;-78
2022/08/25 00:34:29;;;;;;;23.38;18.02;;;;;;;19.45;100.00;100926.77;1768408;81;21039;-78
2022/08/25 00:36:56;;;;;;;23.02;18.40;;;;;;;19.43;100.00;100923.83;1768833;81;21511;-78
2022/08/25 00:39:26;;;;;;;22.32;18.32;;;;;;;19.42;100.00;100928.78;1768362;81;21019;-78
2022/08/25 00:41:56;;;;;;;24.23;17.95;;;;;;;19.42;100.00;100930.11;1765009;81;21001;-78
2022/08/25 00:44:26;;;;;;;19.02;17.02;;;;;;;19.41;100.00;100927.94;1765983;81;21024;-78
2022/08/25 00:46:58;;;;;;;29.85;19.23;;;;;;;19.39;100.00;100926.69;1768730;81;21043;-78
2022/08/25 00:49:40;;;;;;;22.48;17.32;;;;;;;19.40;100.00;100924.91;1768355;81;22014;-78
2022/08/25 00:52:27;;;;;;;22.73;16.80;;;;;;;19.41;100.00;100928.42;1768455;81;20976;-78
2022/08/25 00:55:01;;;;;;;21.62;16.85;;;;;;;19.39;100.00;100928.02;1767559;81;21039;-78
2022/08/25 00:57:39;;;;;;;24.05;17.15;;;;;;;19.39;100.00;100929.83;1743131;81;21035;-78
2022/08/25 01:00:18;;;;;;;22.07;16.93;;;;;;;19.38;100.00;100923.67;1741058;81;21015;-78
2022/08/25 01:02:47;;;;;;;25.12;17.30;;;;;;;19.38;100.00;100926.81;1768938;81;21096;-78
2022/08/25 01:05:13;;;;;;;20.95;17.45;;;;;;;19.37;100.00;100927.30;1768399;81;20958;-78
2022/08/25 01:07:42;;;;;;;24.32;16.35;;;;;;;19.38;100.00;100930.80;1768702;81;20983;-78
2022/08/25 01:10:12;;;;;;;21.48;17.02;;;;;;;19.37;100.00;100925.08;1768399;81;21019;-78
2022/08/25 01:12:39;;;;;;;22.73;17.27;;;;;;;19.35;100.00;100927.02;1760866;80;21019;-78
2022/08/25 01:15:10;;;;;;;23.05;16.62;;;;;;;19.32;100.00;100928.06;1738685;81;22240;-78
2022/08/25 01:17:51;;;;;;;21.48;17.00;;;;;;;19.31;100.00;100926.82;1739152;81;21049;-78
2022/08/25 01:20:22;;;;;;;20.08;15.90;;;;;;;19.31;100.00;100927.67;1738446;81;20994;-78
2022/08/25 01:22:50;;;;;;;24.35;16.60;;;;;;;19.30;100.00;100928.63;1756707;81;21032;-78
2022/08/25 01:25:41;;;;;;;21.20;17.05;;;;;;;19.30;100.00;100928.63;1751319;81;21059;-78
2022/08/25 01:28:09;;;;;;;19.73;16.48;;;;;;;19.28;100.00;100919.05;1756894;81;21204;-77
2022/08/25 01:30:36;;;;;;;20.45;16.97;;;;;;;19.29;100.00;100923.44;1737815;81;21059;-78
2022/08/25 01:33:06;;;;;;;23.50;16.62;;;;;;;19.29;100.00;100927.42;1738274;81;21000;-78
2022/08/25 01:35:34;;;;;;;21.07;17.45;;;;;;;19.27;100.00;100926.66;1753250;81;21635;-78
2022/08/25 01:38:04;;;;;;;20.60;16.62;;;;;;;19.26;100.00;100921.83;1753558;81;21663;-78
2022/08/25 01:40:32;;;;;;;22.13;16.77;;;;;;;19.25;100.00;100933.39;1764410;80;21902;-78
2022/08/25 01:43:13;;;;;;;19.10;16.73;;;;;;;19.24;100.00;100933.03;1754889;81;21619;-78
2022/08/25 01:45:45;;;;;;;23.10;18.00;;;;;;;19.24;100.00;100929.04;1742819;81;21021;-78
2022/08/25 01:48:13;;;;;;;21.90;15.80;;;;;;;19.24;100.00;100933.50;1744955;81;21591;-78
2022/08/25 01:50:42;;;;;;;24.65;17.37;;;;;;;19.22;100.00;100936.73;1740273;81;21009;-78
2022/08/25 01:53:28;;;;;;;20.77;18.20;;;;;;;19.21;100.00;100935.88;1760570;81;21322;-78
2022/08/25 01:56:00;;;;;;;22.07;16.52;;;;;;;19.20;100.00;100935.97;1744898;81;21031;-78
2022/08/25 01:58:32;;;;;;;21.05;16.85;;;;;;;19.16;100.00;100930.86;1754858;81;21532;-78
2022/08/25 02:01:05;;;;;;;24.67;18.15;;;;;;;19.16;100.00;100935.33;1741445;81;21075;-78
2022/08/25 02:03:34;;;;;;;20.60;17.00;;;;;;;19.14;100.00;100929.25;1738362;81;21051;-78
2022/08/25 02:06:02;;;;;;;22.67;17.60;;;;;;;19.12;100.00;100925.37;1738029;81;23740;-78
2022/08/25 02:08:29;;;;;;;23.27;17.40;;;;;;;19.12;100.00;100929.36;1753297;81;21027;-78
2022/08/25 02:10:56;;;;;;;19.65;17.62;;;;;;;19.11;100.00;100925.46;1768237;80;21035;-78
2022/08/25 02:13:23;;;;;;;20.90;17.85;;;;;;;19.10;100.00;100925.94;1761949;81;20987;-78
2022/08/25 02:15:55;;;;;;;21.73;17.10;;;;;;;19.09;100.00;100932.67;1768366;81;20976;-78
2022/08/25 02:18:22;;;;;;;19.45;17.45;;;;;;;19.09;100.00;100928.69;1765482;81;21206;-78
2022/08/25 02:20:49;;;;;;;20.27;17.17;;;;;;;19.09;100.00;100934.88;1764709;81;21533;-78
2022/08/25 02:23:17;;;;;;;25.17;18.37;;;;;;;19.06;100.00;100926.23;1768567;81;20968;-78
2022/08/25 02:25:44;;;;;;;24.05;17.30;;;;;;;19.05;100.00;100927.19;1768375;81;21007;-78
2022/08/25 02:28:11;;;;;;;24.30;16.90;;;;;;;19.04;100.00;100922.36;1761467;81;21531;-78
2022/08/25 02:30:40;;;;;;;23.25;17.42;;;;;;;19.02;100.00;100926.91;1768363;81;22026;-77
2022/08/25 02:33:07;;;;;;;23.70;18.00;;;;;;;19.02;100.00;100926.06;1761680;81;20990;-78
2022/08/25 02:35:36;;;;;;;21.73;17.15;;;;;;;19.00;100.00;100920.84;1764413;81;21052;-77
2022/08/25 02:38:04;;;;;;;19.02;17.07;;;;;;;19.00;100.00;100919.98;1765595;81;20988;-77
2022/08/25 02:40:31;;;;;;;21.68;17.35;;;;;;;19.01;100.00;100924.34;1765513;81;21503;-78
2022/08/25 02:42:59;;;;;;;23.32;17.37;;;;;;;19.00;100.00;100919.98;1758637;81;21135;-78
2022/08/25 02:45:26;;;;;;;25.85;18.15;;;;;;;19.00;100.00;100914.67;1768442;81;21034;-78
2022/08/25 02:47:53;;;;;;;18.90;16.70;;;;;;;18.98;100.00;100913.43;1768320;81;21598;-78
2022/08/25 02:50:20;;;;;;;22.37;18.70;;;;;;;18.96;100.00;100911.85;1769010;81;21022;-77
2022/08/25 02:52:49;;;;;;;23.65;17.23;;;;;;;18.92;100.00;100904.53;1768617;81;20987;-78
2022/08/25 02:55:17;;;;;;;21.37;17.98;;;;;;;18.90;100.00;100909.08;1768990;81;21149;-78
2022/08/25 02:57:44;;;;;;;19.55;17.10;;;;;;;18.88;100.00;100905.69;1764819;81;21052;-78
2022/08/25 03:00:15;;;;;;;19.50;15.93;;;;;;;18.83;100.00;100899.34;1765672;81;21812;-78
2022/08/25 03:02:42;;;;;;;21.27;16.97;;;;;;;18.79;100.00;100896.52;1768520;81;21054;-78
2022/08/25 03:05:12;;;;;;;19.40;16.00;;;;;;;18.79;100.00;100900.50;1768838;81;21094;-78
2022/08/25 03:07:39;;;;;;;23.45;17.52;;;;;;;18.80;100.00;100898.20;1768598;81;21126;-78
2022/08/25 03:10:12;;;;;;;21.80;17.55;;;;;;;18.80;100.00;100903.52;1768454;81;21006;-78
2022/08/25 03:12:40;;;;;;;19.77;16.55;;;;;;;18.79;100.00;100904.48;1767797;81;21027;-78
2022/08/25 03:15:11;;;;;;;23.07;18.55;;;;;;;18.80;100.00;100905.33;1760720;81;21251;-78
2022/08/25 03:17:38;;;;;;;20.00;17.37;;;;;;;18.81;100.00;100903.88;1742106;81;21032;-78
2022/08/25 03:20:06;;;;;;;22.75;17.02;;;;;;;18.80;100.00;100900.02;1745693;81;21089;-78
2022/08/25 03:22:34;;;;;;;19.25;16.93;;;;;;;18.80;100.00;100905.33;1738044;81;21031;-78
2022/08/25 03:27:48;;;;;;;20.37;16.85;;;;;;;18.82;100.00;100900.78;1738331;81;21115;-78
2022/08/25 03:30:16;;;;;;;21.02;16.82;;;;;;;18.81;100.00;100898.57;1738280;81;21130;-78
2022/08/25 03:32:43;;;;;;;20.65;17.32;;;;;;;18.80;100.00;100906.17;1738007;81;21252;-78
2022/08/25 03:35:11;;;;;;;23.90;18.30;;;;;;;18.82;100.00;100902.95;1743453;81;21597;-78
2022/08/25 03:37:40;;;;;;;19.17;16.67;;;;;;;18.81;100.00;100906.54;1764717;81;20992;-79
2022/08/25 03:40:12;;;;;;;19.98;17.67;;;;;;;18.82;100.00;100916.72;1739612;81;21518;-78
2022/08/25 03:42:44;;;;;;;19.37;16.42;;;;;;;18.79;100.00;100908.46;1739771;82;21002;-78
2022/08/25 03:45:15;;;;;;;19.25;16.82;;;;;;;18.77;100.00;100907.70;1763838;81;21120;-78
2022/08/25 03:47:44;;;;;;;22.30;15.72;;;;;;;18.75;100.00;100907.41;1737907;81;21027;-78
2022/08/25 03:50:12;;;;;;;30.12;18.20;;;;;;;18.70;100.00;100910.31;1738103;81;21051;-77
2022/08/25 03:52:39;;;;;;;20.50;17.42;;;;;;;18.67;100.00;100904.72;1738239;81;21655;-78
2022/08/25 03:55:10;;;;;;;20.65;17.17;;;;;;;18.66;100.00;100894.22;1756996;79;20992;-86
2022/08/25 03:57:37;;;;;;;19.87;17.32;;;;;;;18.63;100.00;100901.89;1758305;79;22150;-78
2022/08/25 04:00:08;;;;;;;20.80;17.37;;;;;;;18.61;100.00;100906.44;1758574;81;21039;-85
2022/08/25 04:02:38;;;;;;;20.85;17.27;;;;;;;18.60;100.00;100907.41;1738595;80;21008;-86
2022/08/25 04:05:06;;;;;;;25.12;18.42;;;;;;;18.59;100.00;100901.69;1738724;81;21056;-78
2022/08/25 04:07:33;;;;;;;26.15;17.90;;;;;;;18.57;100.00;100908.92;1764101;81;21482;-84
2022/08/25 04:10:00;;;;;;;22.80;18.52;;;;;;;18.54;100.00;100905.14;1769715;81;21123;-86
2022/08/25 04:12:27;;;;;;;24.30;18.60;;;;;;;18.53;100.00;100910.05;1764722;80;21079;-86
2022/08/25 04:14:54;;;;;;;25.25;18.48;;;;;;;18.53;100.00;100917.16;1754947;81;21023;-85
2022/08/25 04:17:21;;;;;;;20.82;18.55;;;;;;;18.52;100.00;100916.31;1768220;81;21553;-85
2022/08/25 04:19:49;;;;;;;20.57;18.10;;;;;;;18.51;100.00;100911.94;1753751;80;21069;-86
2022/08/25 04:22:17;;;;;;;26.97;18.67;;;;;;;18.51;100.00;100909.28;1756183;81;21193;-78
2022/08/25 04:24:44;;;;;;;23.95;18.62;;;;;;;18.52;100.00;100909.68;1752517;81;21114;-82
2022/08/25 04:27:11;;;;;;;22.67;18.37;;;;;;;18.53;100.00;100911.85;1768044;81;21000;-86
2022/08/25 04:29:38;;;;;;;23.60;18.20;;;;;;;18.54;100.00;100917.53;1750449;81;21520;-78
2022/08/25 04:32:05;;;;;;;30.35;19.67;;;;;;;18.55;100.00;100914.80;1761228;81;21070;-84
2022/08/25 04:34:32;;;;;;;23.30;19.15;;;;;;;18.57;100.00;100923.52;1737882;81;21118;-78
2022/08/25 04:37:04;;;;;;;22.77;19.45;;;;;;;18.60;100.00;100925.14;1737864;81;21090;-82
2022/08/25 04:39:32;;;;;;;21.53;19.10;;;;;;;18.60;100.00;100920.67;1756623;81;21016;-81
2022/08/25 04:41:59;;;;;;;22.25;18.65;;;;;;;18.64;100.00;100923.98;1751870;80;21505;-79
2022/08/25 04:44:27;;;;;;;23.52;20.55;;;;;;;18.66;100.00;100925.59;1755166;81;21099;-87
2022/08/25 04:46:54;;;;;;;25.15;20.08;;;;;;;18.70;100.00;100921.78;1761892;79;21843;-84
2022/08/25 04:49:22;;;;;;;27.60;19.87;;;;;;;18.75;100.00;100928.17;1762637;79;21039;-79
2022/08/25 04:51:49;;;;;;;26.82;20.43;;;;;;;18.78;100.00;100921.83;1748255;81;21462;-80
2022/08/25 04:54:20;;;;;;;22.37;18.95;;;;;;;18.82;100.00;100919.37;1737847;81;21048;-79
2022/08/25 04:56:47;;;;;;;24.80;19.60;;;;;;;18.83;100.00;100913.09;1738107;81;21032;-86
2022/08/25 04:59:16;;;;;;;28.02;20.62;;;;;;;18.85;100.00;100916.52;1737998;81;21130;-88
2022/08/25 05:01:45;;;;;;;29.48;21.45;;;;;;;18.87;100.00;100916.80;1747156;81;21029;-79
2022/08/25 05:04:16;;;;;;;35.73;24.15;;;;;;;18.90;100.00;100915.72;1765570;80;28254;-86
2022/08/25 05:06:43;;;;;;;35.63;25.10;;;;;;;18.92;100.00;100917.33;1763475;80;20877;-79
2022/08/25 05:09:11;;;;;;;35.40;22.77;;;;;;;18.97;100.00;100916.20;1742329;80;21015;-79
2022/08/25 05:11:38;;;;;;;42.98;24.75;;;;;;;18.98;100.00;100911.25;1760480;81;21140;-79
2022/08/25 05:14:10;;;;;;;33.92;22.40;;;;;;;19.00;100.00;100916.84;1756038;79;21031;-79
2022/08/25 05:16:34;;;;;;;41.65;23.52;;;;;;;19.03;100.00;100912.66;1763779;81;21020;-79
2022/08/25 05:19:01;;;;;;;40.30;23.07;;;;;;;19.04;100.00;100911.73;1763841;80;21034;-78
2022/08/25 05:21:28;;;;;;;35.85;23.02;;;;;;;19.07;100.00;100912.86;1762442;81;21461;-78
2022/08/25 05:24:00;;;;;;;35.25;23.67;;;;;;;19.08;100.00;100908.39;1764352;81;21138;-78
2022/08/25 05:26:30;;;;;;;32.35;22.80;;;;;;;19.09;100.00;100913.62;1761658;79;21059;-79
2022/08/25 05:29:00;;;;;;;33.00;23.90;;;;;;;19.13;100.00;100908.95;1764796;81;21051;-78
2022/08/25 05:31:27;;;;;;;;;;;;;;;19.15;100.00;100907.91;1766055;79;21019;-80
2022/08/25 05:33:54;;;;;;;33.78;21.57;;;;;;;19.16;100.00;100916.24;1764128;81;20554;-82
2022/08/25 05:36:23;;;;;;;35.28;23.62;;;;;;;19.16;100.00;100908.75;1765068;81;21964;-80
2022/08/25 05:38:51;;;;;;;37.13;23.55;;;;;;;19.20;100.00;100907.58;1765088;81;21058;-78
2022/08/25 05:41:22;;;;;;;38.30;23.47;;;;;;;19.22;100.00;100911.48;1761277;79;21556;-78
2022/08/25 05:43:49;;;;;;;28.35;22.95;;;;;;;19.22;100.00;100914.14;1763187;81;21031;-80
2022/08/25 05:46:19;;;;;;;35.52;24.63;;;;;;;19.21;100.00;100908.46;1759026;81;21042;-78
2022/08/25 05:48:47;;;;;;;33.23;23.80;;;;;;;19.22;100.00;100904.84;1762227;79;21539;-78
2022/08/25 05:51:15;;;;;;;36.50;23.75;;;;;;;19.22;100.00;100900.38;1759834;81;21032;-78
2022/08/25 05:53:47;;;;;;;35.03;24.02;;;;;;;19.25;100.00;100904.16;1761384;79;21042;-77
2022/08/25 05:56:14;;;;;;;36.28;22.60;;;;;;;19.26;100.00;100899.23;1763986;80;21520;-78
2022/08/25 05:58:42;;;;;;;34.15;23.32;;;;;;;19.29;100.00;100899.03;1764618;80;21643;-80
2022/08/25 06:03:58;;;;;;;33.48;23.45;;;;;;;19.34;100.00;100902.70;1745462;81;21086;-77
2022/08/25 06:06:25;;;;;;;31.37;22.22;;;;;;;19.36;100.00;100903.45;1763306;81;21046;-77
2022/08/25 06:08:52;;;;;;;30.95;22.82;;;;;;;19.38;100.00;100902.89;1762998;79;21138;-77
2022/08/25 06:11:20;;;;;;;27.87;20.60;;;;;;;19.42;100.00;100903.53;1764333;81;21047;-77
2022/08/25 06:13:47;;;;;;;27.90;21.12;;;;;;;19.45;100.00;100905.50;1765196;80;21303;-87
2022/08/25 06:16:14;;;;;;;23.15;20.60;;;;;;;19.47;100.00;100900.94;1761813;80;21174;-82
2022/08/25 06:18:41;;;;;;;25.60;20.10;;;;;;;19.50;100.00;100907.86;1760405;79;20999;-81
2022/08/25 06:21:15;;;;;;;26.73;21.15;;;;;;;19.52;100.00;100903.30;1759798;80;21122;-78
2022/08/25 06:23:42;;;;;;;27.87;20.25;;;;;;;19.55;100.00;100904.42;1763018;80;21050;-77
2022/08/25 06:26:13;;;;;;;25.75;21.57;;;;;;;19.56;100.00;100896.81;1760994;80;21858;-78
2022/08/25 06:28:40;;;;;;;27.37;18.92;;;;;;;19.57;100.00;100901.20;1761083;79;20963;-77
2022/08/25 06:31:08;;;;;;;25.30;20.02;;;;;;;19.61;100.00;100909.33;1759460;80;21521;-79
2022/08/25 06:33:35;;;;;;;27.20;21.20;;;;;;;19.61;100.00;100905.34;1760322;80;21047;-78
2022/08/25 06:36:07;;;;;;;27.45;21.60;;;;;;;19.62;100.00;100909.72;1757953;80;21050;-86
2022/08/25 06:38:35;;;;;;;28.60;20.65;;;;;;;19.66;100.00;100907.73;1761680;80;21126;-77
2022/08/25 06:41:05;;;;;;;30.37;22.10;;;;;;;19.68;100.00;100905.83;1761024;80;21035;-77
2022/08/25 06:43:33;;;;;;;32.40;23.80;;;;;;;19.72;100.00;100912.63;1762154;81;21102;-77
2022/08/25 06:46:16;;;;;;;32.73;22.32;;;;;;;19.75;100.00;100913.75;1762042;79;21058;-78
2022/08/25 06:48:43;;;;;;;31.42;22.65;;;;;;;19.76;100.00;100913.67;1759481;81;21043;-77
2022/08/25 06:51:14;;;;;;;27.45;21.48;;;;;;;19.78;100.00;100905.08;1759526;80;21941;-76
2022/08/25 06:53:44;;;;;;;30.72;22.87;;;;;;;19.80;100.00;100907.17;1763359;81;21047;-76
2022/08/25 06:56:12;;;;;;;34.00;22.67;;;;;;;19.82;100.00;100908.41;1762635;80;21016;-76
2022/08/25 06:58:39;;;;;;;32.25;22.37;;;;;;;19.85;100.00;100916.18;1761351;79;21047;-76
2022/08/25 07:01:20;;;;;;;29.55;22.40;;;;;;;19.88;100.00;100919.11;1763822;79;21047;-77
2022/08/25 07:03:50;;;;;;;29.30;20.45;;;;;;;19.91;100.00;100921.56;1765002;81;22055;-76
2022/08/25 07:06:17;;;;;;;27.50;21.42;;;;;;;19.95;100.00;100917.27;1757914;79;21269;-76
2022/08/25 07:08:46;;;;;;;29.05;20.85;;;;;;;19.98;100.00;100923.70;1762960;81;21090;-77
2022/08/25 07:11:14;;;;;;;40.08;26.02;;;;;;;20.02;100.00;100920.35;1769507;80;21114;-77
2022/08/25 07:13:42;;;;;;;33.13;23.12;;;;;;;20.05;100.00;100923.64;1764667;79;21361;-77
2022/08/25 07:16:10;;;;;;;29.00;23.20;;;;;;;20.08;100.00;100918.59;1758892;81;22000;-76
2022/08/25 07:18:37;;;;;;;29.27;23.57;;;;;;;20.10;100.00;100915.36;1773147;80;21518;-75
2022/08/25 07:21:04;;;;;;;27.52;22.65;;;;;;;20.14;100.00;100922.64;1767718;80;21035;-76
2022/08/25 07:23:31;;;;;;;33.78;23.57;;;;;;;20.16;100.00;100918.92;1765951;80;21044;-76
2022/08/25 07:26:12;;;;;;;35.43;24.10;;;;;;;20.20;100.00;100926.20;1747224;81;21031;-76
2022/08/25 07:28:41;;;;;;;33.45;24.20;;;;;;;20.21;100.00;100926.11;1754963;81;21168;-76
2022/08/25 07:31:08;;;;;;;34.08;24.20;;;;;;;20.23;100.00;100925.98;1771044;80;21028;-76
2022/08/25 07:33:35;;;;;;;30.90;22.58;;;;;;;20.27;100.00;100927.02;1757530;81;21035;-78
2022/08/25 07:36:04;;;;;;;34.55;22.80;;;;;;;20.30;100.00;100928.61;1755699;81;20972;-78
2022/08/25 07:38:31;;;;;;;31.68;20.35;;;;;;;20.34;100.00;100934.11;1748899;81;21051;-82
2022/08/25 07:41:03;;;;;;;27.17;20.23;;;;;;;20.37;100.00;100931.69;1752952;81;21358;-78
2022/08/25 07:43:30;;;;;;;27.87;20.50;;;;;;;20.41;100.00;100934.52;1751575;81;21047;-77
2022/08/25 07:45:57;;;;;;;32.93;22.52;;;;;;;20.43;100.00;100939.27;1762470;80;21062;-77
2022/08/25 07:48:24;;;;;;;31.73;21.75;;;;;;;20.43;100.00;100940.12;1753008;80;21095;-77
2022/08/25 07:50:51;;;;;;;27.05;21.02;;;;;;;20.43;100.00;100933.95;1760993;80;21107;-78
2022/08/25 07:53:18;;;;;;;31.12;19.90;;;;;;;20.45;100.00;100932.00;1760244;81;21296;-77
2022/08/25 07:55:45;;;;;;;26.65;19.42;;;;;;;20.45;100.00;100934.67;1752361;80;22242;-77
2022/08/25 07:58:14;;;;;;;35.98;21.87;;;;;;;20.47;100.00;100940.75;1753590;81;21060;-77
2022/08/25 08:00:41;;;;;;;31.50;22.32;;;;;;;20.47;100.00;100944.73;1753200;81;21079;-77
2022/08/25 08:03:09;;;;;;;28.42;21.10;;;;;;;20.47;100.00;100943.41;1748755;81;21091;-77
2022/08/25 08:05:40;;;;;;;29.45;20.37;;;;;;;20.48;100.00;100943.80;1754939;81;21131;-77
2022/08/25 08:08:07;;;;;;;26.73;17.77;;;;;;;20.49;100.00;100937.02;1760944;81;21110;-77
2022/08/25 08:10:36;;;;;;;25.82;18.40;;;;;;;20.53;100.00;100944.34;1752100;81;21008;-77
2022/08/25 08:13:03;;;;;;;27.30;19.13;;;;;;;20.55;100.00;100945.09;1752907;81;21053;-77
2022/08/25 08:15:30;;;;;;;26.45;19.05;;;;;;;20.61;100.00;100946.47;1764100;81;21050;-77
2022/08/25 08:17:58;;;;;;;29.63;19.48;;;;;;;20.62;100.00;100948.19;1764134;78;21119;-77
2022/08/25 08:20:27;;;;;;;31.20;19.42;;;;;;;20.67;100.00;100951.35;1765811;78;21102;-77
2022/08/25 08:22:54;;;;;;;32.48;19.85;;;;;;;20.67;100.00;100946.91;1763720;78;21095;-77
2022/08/25 08:25:22;;;;;;;27.65;18.48;;;;;;;20.69;100.00;100948.95;1766045;81;21046;-77
2022/08/25 08:27:49;;;;;;;33.58;19.35;;;;;;;20.72;100.00;100951.40;1763790;81;21027;-77
2022/08/25 08:30:17;;;;;;;30.60;19.95;;;;;;;20.78;100.00;100949.27;1765074;81;21828;-77
2022/08/25 08:32:44;;;;;;;28.92;20.40;;;;;;;20.82;100.00;100948.95;1764866;78;21039;-78
2022/08/25 08:35:11;;;;;;;29.42;20.80;;;;;;;20.85;100.00;100950.06;1764065;80;21051;-78
2022/08/25 08:37:40;;;;;;;29.30;19.77;;;;;;;20.88;100.00;100951.17;1765003;81;21498;-87
2022/08/25 08:40:09;;;;;;;31.60;20.15;;;;;;;20.91;100.00;100943.44;1762977;80;21070;-83
2022/08/25 08:43:08;;;;;;;30.00;19.73;;;;;;;20.95;100.00;100939.61;1766352;81;21154;-82
2022/08/25 08:45:46;;;;;;;27.50;19.20;;;;;;;20.96;100.00;100941.30;1765906;78;21525;-85
2022/08/25 08:48:35;;;;;;;26.48;19.25;;;;;;;21.00;100.00;100936.59;1762410;78;21047;-78
2022/08/25 08:51:29;;;;;;;30.97;20.12;;;;;;;21.01;100.00;100945.82;1765700;78;21030;-79
2022/08/25 08:54:09;;;;;;;32.98;20.75;;;;;;;21.05;100.00;100944.63;1764743;78;21058;-79
2022/08/25 08:56:47;;;;;;;32.95;20.65;;;;;;;21.08;100.00;100947.06;1764767;78;21103;-79
2022/08/25 08:59:24;;;;;;;26.95;20.50;;;;;;;21.09;100.00;100943.45;1762688;80;21615;-79
2022/08/25 09:01:58;;;;;;;32.23;21.17;;;;;;;21.12;100.00;100941.05;1761611;81;21079;-79
2022/08/25 09:04:54;;;;;;;32.00;21.65;;;;;;;21.13;100.00;100934.74;1762697;81;21056;-79
2022/08/25 09:07:27;;;;;;;33.18;22.93;;;;;;;21.15;100.00;100937.67;1761443;81;21078;-80
2022/08/25 09:09:54;;;;;;;35.05;22.45;;;;;;;21.19;100.00;100932.11;1762496;80;21536;-81
2022/08/25 09:12:33;;;;;;;30.43;23.12;;;;;;;21.20;100.00;100936.02;1763874;81;21571;-81
2022/08/25 09:15:14;;;;;;;37.13;22.52;;;;;;;21.22;100.00;100936.73;1771374;79;21063;-77
2022/08/25 09:18:01;;;;;;;30.68;21.48;;;;;;;21.26;100.00;100937.38;1762945;79;21011;-81
2022/08/25 09:20:46;;;;;;;31.33;21.23;;;;;;;21.30;100.00;100941.02;1764114;81;21709;-79
2022/08/25 09:23:58;;;;;;;28.12;21.40;;;;;;;21.34;100.00;100931.00;1754777;81;21957;-78
2022/08/25 09:26:46;;;;;;;26.97;19.02;;;;;;;21.37;100.00;100932.98;1767683;79;21047;-78
2022/08/25 09:29:20;;;;;;;26.82;18.37;;;;;;;21.45;100.00;100924.87;1755071;79;21066;-77
2022/08/25 09:31:50;;;;;;;29.30;19.15;;;;;;;21.50;100.00;100924.91;1757278;81;22118;-77
2022/08/25 09:34:22;;;;;;;33.65;19.45;;;;;;;21.56;100.00;100931.59;1760858;79;21012;-78
2022/08/25 09:36:51;;;;;;;27.93;19.87;;;;;;;21.59;100.00;100931.39;1760136;81;21137;-78
2022/08/25 09:39:20;;;;;;;26.82;20.02;;;;;;;21.62;100.00;100939.16;1778273;79;20959;-79
2022/08/25 09:41:57;;;;;;;32.70;19.50;;;;;;;21.66;100.00;100935.77;1760926;81;21023;-82
2022/08/25 09:44:43;;;;;;;28.70;20.40;;;;;;;21.67;100.00;100936.13;1772367;79;21030;-81
2022/08/25 09:47:26;;;;;;;26.23;20.27;;;;;;;21.69;100.00;100934.20;1756026;81;21027;-80
2022/08/25 09:50:00;;;;;;;29.77;21.33;;;;;;;21.73;100.00;100925.02;1758267;81;22275;-78
2022/08/25 09:52:43;;;;;;;31.68;20.68;;;;;;;21.78;100.00;100921.49;1754941;81;21023;-77
2022/08/25 09:55:24;;;;;;;25.08;21.02;;;;;;;21.83;100.00;100921.51;1774077;79;21030;-77
2022/08/25 09:57:55;;;;;;;31.15;20.05;;;;;;;21.90;100.00;100922.41;1779268;79;21015;-78
2022/08/25 10:00:29;;;;;;;29.50;21.48;;;;;;;21.89;100.00;100916.19;1754649;81;21042;-78
2022/08/25 10:03:19;;;;;;;34.00;21.27;;;;;;;21.96;100.00;100915.25;1757223;81;21934;-78
2022/08/25 10:05:49;;;;;;;;;;;;;;;22.02;100.00;100912.95;1760169;80;21540;-77
2022/08/25 10:08:47;;;;;;;36.10;20.57;;;;;;;22.12;100.00;100911.77;1750740;80;20150;-77
2022/08/25 10:11:39;;;;;;;35.08;20.12;;;;;;;22.17;100.00;100899.38;1719460;82;21040;-77
2022/08/25 10:14:27;;;;;;;29.80;20.27;;;;;;;22.25;100.00;100901.00;1719786;82;21221;-77
2022/08/25 10:17:23;;;;;;;27.10;19.65;;;;;;;22.46;100.00;100895.31;1696087;83;21702;-77
2022/08/25 10:19:48;;;;;;;24.72;16.82;;;;;;;22.83;100.00;100886.17;1681530;84;21102;-78
2022/08/25 10:22:31;;;;;;;24.23;16.57;;;;;;;23.27;100.00;100877.21;1727844;82;21090;-77
2022/08/25 10:24:55;;;;;;;22.93;16.60;;;;;;;23.67;100.00;100877.06;1735123;82;21157;-77
2022/08/25 10:27:39;;;;;;;26.68;16.82;;;;;;;24.07;100.00;100870.50;1731090;82;21079;-77
2022/08/25 10:30:32;;;;;;;27.05;16.65;;;;;;;24.37;100.00;100872.84;1725394;82;21100;-77
2022/08/25 10:33:21;;;;;;;22.93;15.83;;;;;;;24.67;100.00;100875.52;1723489;82;20985;-77
2022/08/25 10:36:09;;;;;;;25.65;16.45;;;;;;;24.83;100.00;100874.13;1737969;82;21005;-77
2022/08/25 10:38:44;;;;;;;23.20;14.43;;;;;;;24.97;100.00;100867.05;1736754;82;21075;-77
2022/08/25 10:42:01;;;;;;;21.42;13.70;;;;;;;25.10;100.00;100858.22;1725366;82;21087;-77
2022/08/25 10:48:03;;;;;;;18.25;12.82;;;;;;;25.43;100.00;100853.97;1745211;81;21048;-77
2022/08/25 10:50:38;;;;;;;22.60;12.68;;;;;;;25.66;100.00;100847.79;1760611;80;21026;-77
2022/08/25 10:53:50;;;;;;;21.65;13.03;;;;;;;25.83;100.00;100849.80;1743944;81;21090;-77
2022/08/25 10:56:40;;;;;;;18.15;12.07;;;;;;;26.03;100.00;100849.23;1729521;80;20974;-77
2022/08/25 10:59:38;;;;;;;18.40;11.25;;;;;;;26.27;99.96;100846.02;1736408;81;21125;-77
2022/08/25 11:02:37;;;;;;;15.90;10.87;;;;;;;26.52;99.55;100844.52;1737501;81;20961;-77
2022/08/25 11:05:29;;;;;;;19.90;11.63;;;;;;;26.69;98.25;100834.83;1736276;81;21017;-77
2022/08/25 11:08:22;;;;;;;20.82;11.97;;;;;;;26.83;97.13;100839.69;1745480;81;21497;-77
2022/08/25 11:11:08;;;;;;;16.12;10.63;;;;;;;26.87;95.66;100837.53;1734610;80;21657;-77
2022/08/25 11:13:49;;;;;;;17.70;10.63;;;;;;;26.91;95.76;100836.24;1736046;81;21490;-77
2022/08/25 11:16:44;;;;;;;19.20;10.68;;;;;;;27.06;95.12;100821.24;1747824;82;21501;-78
2022/08/25 11:19:37;;;;;;;19.42;10.55;;;;;;;27.13;94.76;100821.46;1759531;81;21043;-82
2022/08/25 11:22:20;;;;;;;21.80;10.13;;;;;;;27.29;94.19;100818.95;1754464;81;21032;-82
2022/08/25 11:25:08;;;;;;;16.90;10.15;;;;;;;27.41;92.92;100816.88;1759611;81;21353;-82
2022/08/25 11:28:13;;;;;;;17.23;9.80;;;;;;;27.54;91.96;100813.77;1758823;81;21285;-79
2022/08/25 11:30:40;;;;;;;14.10;9.23;;;;;;;27.53;90.92;100804.01;1759578;81;21055;-81
2022/08/25 11:33:17;;;;;;;16.82;8.80;;;;;;;27.55;90.40;100804.70;1759995;81;21086;-79
2022/08/25 11:35:52;;;;;;;15.58;9.35;;;;;;;27.66;90.58;100804.45;1759668;81;21087;-77